Time;durP1;ratioP1;P1;durP2;ratioP2;P2;SDS_P1;SDS_P2;PMS_P1;PMS_P2;Temp;Humidity;BMP_temperature;BMP_pressure;BME280_temperature;BME280_humidity;BME280_pressure;Samples;Min_cycle;Max_cycle;Signal;HPM_P1;HPM_P2
2022/01/03 00:01:17;;;;;;;26.00;8.63;;;;;;;9.48;82.77;101060.00;4995005;28;20057;-56
2022/01/03 00:03:43;;;;;;;26.33;9.18;;;;;;;9.49;82.95;101066.38;4995060;28;20050;-56
2022/01/03 00:06:08;;;;;;;21.65;8.88;;;;;;;9.48;83.25;101067.47;4994461;28;20072;-55
2022/01/03 00:08:34;;;;;;;26.10;9.23;;;;;;;9.48;82.70;101062.78;4994392;28;20029;-56
2022/01/03 00:11:00;;;;;;;25.98;9.65;;;;;;;9.48;82.78;101071.06;4993962;28;20062;-55
2022/01/03 00:13:26;;;;;;;23.58;9.00;;;;;;;9.48;82.91;101073.81;4993940;28;20026;-55
2022/01/03 00:15:52;;;;;;;25.88;9.55;;;;;;;9.50;82.90;101071.59;4994800;28;20084;-55
2022/01/03 00:18:18;;;;;;;23.92;9.10;;;;;;;9.52;82.63;101074.06;4994078;28;20397;-55
2022/01/03 00:20:57;;;;;;;29.33;9.50;;;;;;;9.49;83.01;101069.13;4994676;28;20038;-56
2022/01/03 00:23:26;;;;;;;28.83;9.90;;;;;;;9.46;83.29;101073.28;4993184;28;20359;-55
2022/01/03 00:25:57;;;;;;;23.08;9.23;;;;;;;9.42;82.91;101069.47;4993514;28;20026;-55
2022/01/03 00:28:25;;;;;;;23.38;9.20;;;;;;;9.34;83.06;101070.13;4993965;28;20049;-55
2022/01/03 00:30:54;;;;;;;28.83;9.32;;;;;;;9.42;82.89;101085.19;4993957;28;20034;-54
2022/01/03 00:33:20;;;;;;;29.60;9.45;;;;;;;9.41;82.83;101080.78;4994207;28;20347;-55
2022/01/03 00:35:53;;;;;;;26.27;10.10;;;;;;;9.40;83.28;101081.94;4994034;28;20037;-55
2022/01/03 00:38:20;;;;;;;27.75;9.73;;;;;;;9.38;82.76;101079.44;4993987;28;20034;-57
2022/01/03 00:40:45;;;;;;;27.63;10.00;;;;;;;9.37;83.39;101077.78;4994385;28;20038;-56
2022/01/03 00:43:11;;;;;;;24.92;9.07;;;;;;;9.36;82.66;101081.66;4993217;28;20157;-56
2022/01/03 00:45:36;;;;;;;25.60;9.07;;;;;;;9.34;82.82;101087.50;4993307;28;20034;-55
2022/01/03 00:48:06;;;;;;;25.75;9.20;;;;;;;9.28;82.42;101077.63;4991547;28;20027;-55
2022/01/03 00:50:33;;;;;;;28.23;9.40;;;;;;;9.37;82.51;101091.59;4993592;28;20478;-55
2022/01/03 00:52:58;;;;;;;26.42;9.95;;;;;;;9.40;82.41;101090.22;4993154;28;20054;-56
2022/01/03 00:55:23;;;;;;;23.98;10.38;;;;;;;9.43;81.37;101087.69;4994007;28;20484;-58
2022/01/03 00:58:09;;;;;;;27.33;10.30;;;;;;;9.48;82.05;101093.16;4993554;28;20038;-55
2022/01/03 01:00:38;;;;;;;25.88;9.45;;;;;;;9.47;81.38;101094.25;4993508;28;20093;-55
2022/01/03 01:03:10;;;;;;;23.42;8.60;;;;;;;9.40;81.17;101088.28;4992854;28;20165;-55
2022/01/03 01:05:39;;;;;;;23.25;9.02;;;;;;;9.36;81.20;101073.38;4993722;28;20085;-56
2022/01/03 01:08:05;;;;;;;23.98;9.50;;;;;;;9.46;81.26;101089.03;4993464;28;20030;-56
2022/01/03 01:10:33;;;;;;;24.48;8.77;;;;;;;9.49;81.29;101096.75;4993510;28;20100;-56
2022/01/03 01:12:58;;;;;;;24.52;9.60;;;;;;;9.54;81.16;101099.44;4993270;28;20031;-56
2022/01/03 01:15:27;;;;;;;26.50;9.70;;;;;;;9.56;80.71;101104.66;4992923;28;20030;-56
2022/01/03 01:17:53;;;;;;;24.15;9.60;;;;;;;9.55;80.70;101095.56;4992956;28;20038;-55
2022/01/03 01:20:20;;;;;;;30.63;9.68;;;;;;;9.53;80.82;101095.03;4993064;28;20034;-54
2022/01/03 01:22:47;;;;;;;29.33;9.88;;;;;;;9.58;80.96;101111.56;4993662;28;20193;-53
2022/01/03 01:27:48;;;;;;;25.65;9.80;;;;;;;9.56;79.95;101110.19;4993694;28;20121;-55
2022/01/03 01:30:15;;;;;;;25.13;9.55;;;;;;;9.56;80.29;101099.13;4993376;28;20066;-53
2022/01/03 01:32:46;;;;;;;27.05;10.32;;;;;;;9.56;80.19;101107.44;4993095;28;20101;-54
2022/01/03 01:35:13;;;;;;;22.83;9.50;;;;;;;9.55;80.51;101108.53;4993556;28;20037;-54
2022/01/03 01:37:40;;;;;;;25.60;9.82;;;;;;;9.52;80.43;101107.19;4993338;28;20034;-54
2022/01/03 01:40:06;;;;;;;27.92;9.95;;;;;;;9.49;81.01;101107.78;4997075;28;20029;-54
2022/01/03 01:42:35;;;;;;;26.42;9.52;;;;;;;9.44;80.53;101102.31;4996960;28;20069;-54
2022/01/03 01:45:07;;;;;;;27.50;10.00;;;;;;;9.45;80.46;101109.47;4997004;28;20080;-54
2022/01/03 01:47:38;;;;;;;27.70;9.77;;;;;;;9.34;80.26;101089.44;4996681;28;20027;-54
2022/01/03 01:50:05;;;;;;;26.25;9.73;;;;;;;9.39;80.94;101103.19;4997005;28;20088;-54
2022/01/03 01:52:34;;;;;;;24.45;10.43;;;;;;;9.35;80.26;101100.19;4995920;28;20370;-55
2022/01/03 01:55:06;;;;;;;26.42;9.98;;;;;;;9.38;80.39;101106.25;4996696;28;20031;-54
2022/01/03 01:57:56;;;;;;;29.73;10.07;;;;;;;9.31;80.28;101096.34;4996646;28;20030;-55
2022/01/03 02:00:22;;;;;;;29.92;10.05;;;;;;;9.29;80.58;101112.41;4997051;28;20022;-54
2022/01/03 02:03:44;;;;;;;26.52;10.07;;;;;;;9.23;80.96;101104.47;4996346;28;20084;-55
2022/01/03 02:06:25;;;;;;;28.00;9.88;;;;;;;9.17;81.28;101111.97;4936659;29;20044;-55
2022/01/03 02:09:21;;;;;;;29.17;10.05;;;;;;;9.14;81.77;101096.81;4935966;29;20130;-54
2022/01/03 02:11:50;;;;;;;24.75;9.10;;;;;;;9.10;81.68;101112.28;4976389;28;20397;-54
2022/01/03 02:14:17;;;;;;;27.00;9.20;;;;;;;9.00;81.46;101104.94;4995873;28;20022;-54
2022/01/03 02:16:43;;;;;;;26.42;9.45;;;;;;;9.01;82.03;101117.63;4996251;28;20031;-54
2022/01/03 02:19:10;;;;;;;27.52;9.40;;;;;;;8.98;82.35;101115.44;4996236;28;20030;-57
2022/01/03 02:21:35;;;;;;;24.70;9.65;;;;;;;9.00;82.22;101118.75;4996902;28;20023;-57
2022/01/03 02:24:02;;;;;;;24.05;9.50;;;;;;;8.99;82.18;101119.00;4996506;28;20037;-53
2022/01/03 02:26:29;;;;;;;28.25;9.80;;;;;;;8.95;81.90;101118.75;4995937;28;20041;-54
2022/01/03 02:28:54;;;;;;;24.17;9.32;;;;;;;8.95;82.29;101120.72;4996414;28;20037;-54
2022/01/03 02:31:21;;;;;;;25.30;9.50;;;;;;;8.92;82.11;101116.59;4996171;28;20027;-54
2022/01/03 02:33:46;;;;;;;25.05;9.32;;;;;;;8.94;82.07;101110.78;4994703;28;20033;-54
2022/01/03 02:36:12;;;;;;;25.20;9.02;;;;;;;8.90;82.48;101122.38;4995984;28;20034;-53
2022/01/03 02:38:37;;;;;;;26.23;9.38;;;;;;;8.85;82.84;101119.69;4995739;28;20047;-53
2022/01/03 02:41:03;;;;;;;25.55;9.45;;;;;;;8.83;82.79;101118.31;4995806;28;20077;-53
2022/01/03 02:43:28;;;;;;;27.98;9.75;;;;;;;8.83;82.86;101113.63;4995277;28;20022;-54
2022/01/03 02:45:53;;;;;;;25.27;9.30;;;;;;;8.84;82.85;101120.78;4995524;28;20049;-54
2022/01/03 02:48:20;;;;;;;27.38;8.35;;;;;;;8.82;83.02;101119.44;4994090;28;20444;-53
2022/01/03 02:50:46;;;;;;;27.73;9.27;;;;;;;8.78;83.25;101112.84;4994585;28;20023;-53
2022/01/03 02:53:12;;;;;;;26.08;9.15;;;;;;;8.80;83.16;101116.94;4996003;28;20050;-53
2022/01/03 02:55:38;;;;;;;25.52;9.02;;;;;;;8.78;83.25;101118.34;4995872;28;20034;-53
2022/01/03 02:58:07;;;;;;;24.65;9.52;;;;;;;8.78;82.96;101110.91;4995688;28;20382;-53
2022/01/03 03:00:37;;;;;;;26.70;9.27;;;;;;;8.80;83.27;101113.38;4995215;28;20470;-53
2022/01/03 03:03:03;;;;;;;25.38;8.88;;;;;;;8.83;82.97;101119.13;4995952;28;20026;-55
2022/01/03 03:05:29;;;;;;;25.48;9.50;;;;;;;8.83;82.88;101110.06;4995622;28;20023;-53
2022/01/03 03:07:55;;;;;;;28.83;8.98;;;;;;;8.82;82.98;101119.44;4995421;28;20019;-53
2022/01/03 03:10:24;;;;;;;27.80;9.00;;;;;;;8.78;83.15;101118.34;4994202;28;20037;-54
2022/01/03 03:12:50;;;;;;;26.30;9.60;;;;;;;8.77;83.31;101119.47;4994981;28;20486;-53
2022/01/03 03:15:17;;;;;;;29.30;10.40;;;;;;;8.79;83.15;101120.81;4994741;28;20030;-54
2022/01/03 03:17:44;;;;;;;28.65;9.80;;;;;;;8.78;83.25;101124.72;4994584;28;20073;-54
2022/01/03 03:20:23;;;;;;;26.40;10.00;;;;;;;8.75;83.66;101128.03;4994763;28;20105;-54
2022/01/03 03:22:50;;;;;;;27.85;10.30;;;;;;;8.77;83.42;101134.09;4994941;28;20118;-55
2022/01/03 03:25:18;;;;;;;28.92;10.23;;;;;;;8.72;83.31;101132.19;4995349;28;20034;-55
2022/01/03 03:27:47;;;;;;;27.70;10.18;;;;;;;8.73;83.69;101120.06;4995225;28;20054;-54
2022/01/03 03:30:19;;;;;;;26.95;9.90;;;;;;;8.74;83.67;101118.09;4995585;28;20022;-54
2022/01/03 03:32:45;;;;;;;26.88;10.93;;;;;;;8.85;83.75;101121.59;4994646;28;20445;-54
2022/01/03 03:35:11;;;;;;;26.13;9.40;;;;;;;8.87;83.40;101134.03;4994899;28;20030;-57
2022/01/03 03:37:37;;;;;;;26.25;10.07;;;;;;;8.87;83.58;101131.25;4994314;28;20363;-54
2022/01/03 03:40:03;;;;;;;31.55;11.13;;;;;;;8.79;83.77;101115.28;4994806;28;20486;-56
2022/01/03 03:42:29;;;;;;;34.13;10.23;;;;;;;8.91;83.30;101128.75;4994686;28;20389;-56
2022/01/03 03:44:54;;;;;;;23.65;10.00;;;;;;;8.94;83.13;101119.88;4995565;28;20022;-56
2022/01/03 03:47:19;;;;;;;30.52;10.27;;;;;;;8.96;83.09;101119.59;4994990;28;20109;-55
2022/01/03 03:49:44;;;;;;;22.55;10.13;;;;;;;8.98;82.71;101128.41;4993604;28;20038;-55
2022/01/03 03:52:11;;;;;;;29.08;8.90;;;;;;;9.01;82.64;101130.59;4994287;28;20109;-55
2022/01/03 03:54:36;;;;;;;30.13;9.88;;;;;;;9.01;82.98;101120.38;4994507;28;20046;-54
2022/01/03 03:57:03;;;;;;;27.45;11.25;;;;;;;8.98;82.79;101111.84;4994813;28;20034;-53
2022/01/03 03:59:29;;;;;;;27.40;9.70;;;;;;;9.01;82.18;101103.00;4994665;28;20061;-54
2022/01/03 04:01:55;;;;;;;26.27;11.10;;;;;;;9.08;82.65;101110.94;4994157;28;20470;-54
2022/01/03 04:04:21;;;;;;;27.48;9.57;;;;;;;9.05;82.65;101118.69;4994958;28;20030;-54
2022/01/03 04:06:47;;;;;;;26.05;9.77;;;;;;;9.04;82.87;101124.50;4994083;28;20037;-54
2022/01/03 04:09:13;;;;;;;23.48;9.48;;;;;;;8.98;83.23;101107.16;4994133;28;20089;-54
2022/01/03 04:11:38;;;;;;;26.02;9.60;;;;;;;9.01;82.60;101103.00;4994385;28;20148;-54
2022/01/03 04:14:03;;;;;;;27.58;10.23;;;;;;;9.00;82.96;101106.84;4994588;28;20049;-56
2022/01/03 04:16:29;;;;;;;25.92;9.15;;;;;;;9.00;83.33;101102.19;4994451;28;20034;-56
2022/01/03 04:18:54;;;;;;;27.10;9.57;;;;;;;8.97;83.50;101108.25;4994329;28;20033;-56
2022/01/03 04:21:20;;;;;;;26.35;9.77;;;;;;;8.98;83.32;101103.56;4994201;28;20023;-55
2022/01/03 04:23:45;;;;;;;27.63;9.43;;;;;;;8.91;83.43;101095.63;4993543;28;20068;-55
2022/01/03 04:26:11;;;;;;;27.55;9.70;;;;;;;8.93;83.45;101100.84;4994075;28;20143;-56
2022/01/03 04:28:37;;;;;;;27.48;10.40;;;;;;;8.94;83.16;101084.00;4994022;28;20125;-57
2022/01/03 04:31:02;;;;;;;26.40;9.20;;;;;;;9.00;83.01;101084.78;4994585;28;20040;-57
2022/01/03 04:33:28;;;;;;;25.85;8.80;;;;;;;8.94;82.96;101084.00;4994227;28;20042;-57
2022/01/03 04:35:53;;;;;;;28.30;9.43;;;;;;;8.94;83.18;101094.22;4994271;28;20053;-56
2022/01/03 04:38:18;;;;;;;29.35;9.13;;;;;;;8.95;83.60;101101.41;4993406;28;20022;-56
2022/01/03 04:40:44;;;;;;;21.92;8.90;;;;;;;8.96;83.21;101097.53;4993539;28;20030;-56
2022/01/03 04:43:09;;;;;;;26.20;9.82;;;;;;;9.02;83.08;101094.41;4993882;28;20478;-55
2022/01/03 04:45:34;;;;;;;24.80;9.32;;;;;;;9.04;83.24;101102.41;4994357;28;20030;-57
2022/01/03 04:48:00;;;;;;;28.95;9.82;;;;;;;9.01;83.59;101098.31;4993715;28;20030;-55
2022/01/03 04:50:25;;;;;;;25.33;9.32;;;;;;;9.01;83.32;101092.78;4994313;28;20056;-55
2022/01/03 04:52:50;;;;;;;23.83;10.20;;;;;;;9.06;82.85;101094.69;4993858;28;20093;-55
2022/01/03 04:55:16;;;;;;;30.95;9.82;;;;;;;9.03;83.00;101087.78;4993548;28;20028;-55
2022/01/03 04:57:41;;;;;;;31.10;9.73;;;;;;;9.00;82.89;101090.31;4993521;28;20023;-55
2022/01/03 05:00:08;;;;;;;28.00;8.90;;;;;;;9.01;83.22;101086.44;4993727;28;20034;-55
2022/01/03 05:02:36;;;;;;;26.58;9.63;;;;;;;9.01;83.00;101087.28;4993598;28;20477;-55
2022/01/03 05:05:01;;;;;;;27.70;9.80;;;;;;;9.04;82.59;101080.34;4993889;28;20034;-55
2022/01/03 05:07:26;;;;;;;28.33;9.00;;;;;;;9.03;83.10;101089.72;4993663;28;20018;-55
2022/01/03 05:09:52;;;;;;;28.63;10.50;;;;;;;9.00;82.88;101093.06;4993156;28;20106;-54
2022/01/03 05:12:17;;;;;;;25.00;8.77;;;;;;;9.03;83.07;101086.97;4992684;28;20493;-55
2022/01/03 05:14:43;;;;;;;27.65;10.52;;;;;;;9.03;82.71;101092.50;4991444;28;20037;-55
2022/01/03 05:17:09;;;;;;;25.98;9.55;;;;;;;8.96;82.93;101080.97;4993668;28;20044;-56
2022/01/03 05:19:35;;;;;;;28.17;9.73;;;;;;;8.92;83.13;101072.44;4993286;28;20512;-55
2022/01/03 05:22:00;;;;;;;28.70;9.70;;;;;;;8.93;83.39;101074.06;4993692;28;20026;-56
2022/01/03 05:24:25;;;;;;;26.42;8.88;;;;;;;8.95;82.92;101074.63;4993409;28;20044;-55
2022/01/03 05:26:50;;;;;;;28.67;9.82;;;;;;;8.93;83.00;101076.03;4992899;28;20077;-55
2022/01/03 05:29:16;;;;;;;26.52;9.07;;;;;;;8.93;83.29;101057.50;4992874;28;20125;-55
2022/01/03 05:31:41;;;;;;;29.80;9.68;;;;;;;8.95;83.20;101060.81;4993292;28;20104;-54
2022/01/03 05:34:07;;;;;;;24.65;8.93;;;;;;;8.93;83.26;101059.47;4993074;28;20026;-54
2022/01/03 05:36:32;;;;;;;32.17;9.25;;;;;;;8.89;83.68;101053.72;4993547;28;20069;-54
2022/01/03 05:38:57;;;;;;;25.23;8.60;;;;;;;8.90;83.88;101063.63;4993622;28;20066;-56
2022/01/03 05:41:23;;;;;;;27.80;9.27;;;;;;;8.90;84.11;101049.84;4992853;28;20034;-54
2022/01/03 05:43:49;;;;;;;28.85;8.23;;;;;;;8.88;83.74;101054.81;4991951;28;20437;-54
2022/01/03 05:46:14;;;;;;;25.92;8.30;;;;;;;8.88;84.08;101063.91;4993299;28;20022;-55
2022/01/03 05:48:40;;;;;;;25.65;8.35;;;;;;;8.92;84.07;101063.34;4992588;28;20026;-55
2022/01/03 05:51:05;;;;;;;28.00;9.30;;;;;;;8.89;84.33;101045.44;4991271;28;20395;-54
2022/01/03 05:53:31;;;;;;;26.50;8.85;;;;;;;8.86;84.00;101044.09;4992343;28;20085;-54
2022/01/03 05:55:57;;;;;;;26.63;9.10;;;;;;;8.80;84.76;101052.69;4992848;28;20249;-54
2022/01/03 05:58:23;;;;;;;25.17;9.05;;;;;;;8.80;84.27;101045.22;4992878;28;20162;-54
2022/01/03 06:00:48;;;;;;;25.65;8.75;;;;;;;8.86;84.03;101046.00;4993289;28;20501;-56
2022/01/03 06:03:14;;;;;;;26.02;8.95;;;;;;;8.87;84.13;101047.66;4992300;28;20026;-54
2022/01/03 06:05:53;;;;;;;26.30;8.93;;;;;;;8.92;83.42;101047.63;4992408;28;20030;-54
2022/01/03 06:08:18;;;;;;;28.77;8.90;;;;;;;8.90;83.56;101044.31;4993299;28;20031;-55
2022/01/03 06:10:43;;;;;;;24.05;9.00;;;;;;;8.90;83.78;101053.41;4992804;28;20036;-55
2022/01/03 06:13:09;;;;;;;26.23;10.57;;;;;;;8.95;83.55;101049.78;4992650;28;20052;-54
2022/01/03 06:15:38;;;;;;;28.42;8.60;;;;;;;8.93;83.64;101045.66;4991882;28;20070;-54
2022/01/03 06:18:04;;;;;;;25.55;9.05;;;;;;;8.90;83.47;101047.88;4992060;28;20429;-55
2022/01/03 06:20:31;;;;;;;24.52;8.13;;;;;;;8.92;83.43;101042.09;4993007;28;20037;-55
2022/01/03 06:22:56;;;;;;;25.33;8.88;;;;;;;8.88;83.93;101044.59;4992996;28;20100;-55
2022/01/03 06:25:22;;;;;;;26.58;8.95;;;;;;;8.84;84.22;101045.47;4995455;28;20390;-55
2022/01/03 06:27:47;;;;;;;30.95;9.50;;;;;;;8.84;83.87;101043.53;4996092;28;20025;-55
2022/01/03 06:30:13;;;;;;;28.65;8.52;;;;;;;8.88;84.00;101046.53;4996028;28;20474;-55
2022/01/03 06:32:38;;;;;;;27.75;9.15;;;;;;;8.83;84.36;101046.59;4995885;28;20413;-55
2022/01/03 06:35:04;;;;;;;29.55;10.00;;;;;;;8.82;83.85;101048.50;4995666;28;20031;-55
2022/01/03 06:37:30;;;;;;;25.55;9.20;;;;;;;8.83;83.84;101033.63;4996651;28;20544;-55
2022/01/03 06:39:55;;;;;;;26.45;9.50;;;;;;;8.78;84.34;101033.69;4996135;28;20109;-56
2022/01/03 06:42:20;;;;;;;25.48;9.35;;;;;;;8.77;84.53;101026.50;4996062;28;20069;-55
2022/01/03 06:44:46;;;;;;;24.17;8.70;;;;;;;8.77;84.86;101031.19;4996015;28;20369;-57
2022/01/03 06:47:12;;;;;;;27.02;8.65;;;;;;;8.70;84.55;101026.84;4995933;28;20153;-55
2022/01/03 06:49:37;;;;;;;26.35;9.07;;;;;;;8.71;84.23;101022.97;4995730;28;20034;-54
2022/01/03 06:52:03;;;;;;;25.20;9.60;;;;;;;8.64;84.84;101024.41;4995806;28;20058;-54
2022/01/03 06:54:28;;;;;;;25.00;9.57;;;;;;;8.61;85.44;101027.72;4995649;28;20050;-54
2022/01/03 06:56:54;;;;;;;26.55;9.30;;;;;;;8.58;85.67;101032.72;4995684;28;20614;-55
2022/01/03 06:59:19;;;;;;;24.65;8.50;;;;;;;8.60;85.55;101026.91;4995818;28;20129;-57
2022/01/03 07:01:45;;;;;;;22.70;8.68;;;;;;;8.58;86.03;101020.84;4995058;28;20220;-56
2022/01/03 07:04:10;;;;;;;25.30;8.90;;;;;;;8.58;85.78;101024.47;4995642;28;20040;-55
2022/01/03 07:06:36;;;;;;;22.33;8.55;;;;;;;8.59;86.07;101028.03;4996168;28;20023;-56
2022/01/03 07:09:05;;;;;;;22.70;8.23;;;;;;;8.57;86.41;101024.72;4996109;28;20026;-55
2022/01/03 07:11:31;;;;;;;24.63;8.73;;;;;;;8.54;86.80;101028.09;4995714;28;20030;-55
2022/01/03 07:18:55;;;;;;;22.90;8.63;;;;;;;8.56;86.95;101023.06;4995278;28;20026;-55
2022/01/03 07:19:25;;;;;;;23.55;8.85;;;;;;;8.50;87.75;101024.25;4995712;28;20402;-55
2022/01/03 07:21:50;;;;;;;24.00;8.15;;;;;;;8.48;87.98;101023.69;4995591;28;20030;-55
2022/01/03 07:24:15;;;;;;;23.17;8.23;;;;;;;8.51;87.81;101017.63;4994491;28;20053;-55
2022/01/03 07:26:41;;;;;;;26.08;8.40;;;;;;;8.52;87.87;101013.75;4995508;28;20026;-55
2022/01/03 07:29:06;;;;;;;23.35;7.95;;;;;;;8.47;88.45;101028.41;4995548;28;20105;-57
2022/01/03 07:31:31;;;;;;;22.35;8.30;;;;;;;8.48;89.24;101031.97;4995315;28;20363;-57
2022/01/03 07:33:56;;;;;;;24.75;7.97;;;;;;;8.51;88.99;101023.94;4995525;28;20038;-57
2022/01/03 07:36:22;;;;;;;22.13;8.40;;;;;;;8.52;89.01;101022.84;4994528;28;20030;-58
2022/01/03 07:38:48;;;;;;;20.30;7.88;;;;;;;8.52;88.61;101020.06;4995357;28;20030;-58
2022/01/03 07:41:15;;;;;;;23.27;8.48;;;;;;;8.50;88.63;101015.97;4995176;28;20022;-57
2022/01/03 07:43:42;;;;;;;23.83;8.57;;;;;;;8.45;88.73;101014.03;4995458;28;20029;-58
2022/01/03 07:46:07;;;;;;;23.60;8.80;;;;;;;8.47;88.95;101030.28;4995374;28;20030;-59
2022/01/03 07:48:32;;;;;;;23.63;8.48;;;;;;;8.39;88.32;101018.78;4994876;28;20541;-57
2022/01/03 07:50:57;;;;;;;26.30;8.93;;;;;;;8.39;88.58;101021.53;4994878;28;20033;-58
2022/01/03 07:53:23;;;;;;;23.25;8.63;;;;;;;8.40;88.53;101025.13;4995336;28;20060;-56
2022/01/03 07:55:48;;;;;;;23.10;8.18;;;;;;;8.38;88.40;101035.59;4995293;28;20029;-58
2022/01/03 07:58:16;;;;;;;24.67;8.45;;;;;;;8.37;88.82;101044.97;4994814;28;20029;-56
2022/01/03 08:00:42;;;;;;;21.20;7.95;;;;;;;8.36;88.37;101048.84;4994996;28;20033;-56
2022/01/03 08:03:07;;;;;;;26.92;7.63;;;;;;;8.31;88.45;101041.44;4994619;28;20041;-58
2022/01/03 08:05:33;;;;;;;22.25;8.02;;;;;;;8.30;88.59;101044.50;4993584;28;20018;-56
2022/01/03 08:07:58;;;;;;;23.40;7.63;;;;;;;8.38;88.46;101052.97;4993547;28;20073;-56
2022/01/03 08:10:24;;;;;;;23.88;7.88;;;;;;;8.48;87.86;101035.56;4994744;28;20041;-56
2022/01/03 08:12:50;;;;;;;23.20;7.65;;;;;;;8.48;87.80;101032.81;4994737;28;20026;-56
2022/01/03 08:15:15;;;;;;;27.85;7.82;;;;;;;8.51;87.51;101042.44;4993202;28;20496;-57
2022/01/03 08:17:44;;;;;;;22.40;6.80;;;;;;;8.50;87.88;101032.50;4993431;28;20032;-56
2022/01/03 08:20:09;;;;;;;22.15;7.88;;;;;;;8.55;87.63;101029.69;4992737;28;20110;-56
2022/01/03 08:22:35;;;;;;;20.30;7.13;;;;;;;8.60;87.29;101032.44;4993113;28;20023;-58
2022/01/03 08:25:00;;;;;;;21.30;7.07;;;;;;;8.62;87.08;101030.22;4992143;28;20033;-56
2022/01/03 08:27:25;;;;;;;20.63;6.85;;;;;;;8.66;86.62;101031.28;4993975;28;20062;-58
2022/01/03 08:29:51;;;;;;;24.38;7.63;;;;;;;8.72;86.45;101037.56;4993955;28;20039;-57
2022/01/03 08:32:16;;;;;;;22.52;7.43;;;;;;;8.72;86.17;101027.38;4992920;28;20442;-57
2022/01/03 08:34:41;;;;;;;19.40;7.28;;;;;;;8.73;86.15;101036.47;4993801;28;20045;-56
2022/01/03 08:37:06;;;;;;;24.13;8.52;;;;;;;8.80;86.02;101036.13;4994368;28;20065;-57
2022/01/03 08:39:32;;;;;;;22.25;8.23;;;;;;;8.83;86.06;101028.09;4994361;28;20057;-56
2022/01/03 08:41:57;;;;;;;21.83;7.57;;;;;;;8.83;85.92;101033.63;4985193;28;20052;-56
2022/01/03 08:44:23;;;;;;;21.48;7.20;;;;;;;8.89;85.32;101028.88;4972915;28;20490;-56
2022/01/03 08:46:49;;;;;;;23.65;8.32;;;;;;;8.86;85.80;101033.03;4973432;28;20054;-56
2022/01/03 08:49:15;;;;;;;25.98;7.57;;;;;;;8.86;86.00;101044.09;4972602;28;20101;-56
2022/01/03 08:51:41;;;;;;;24.10;7.07;;;;;;;8.87;85.86;101033.84;4973454;28;20458;-56
2022/01/03 08:54:06;;;;;;;23.88;7.68;;;;;;;8.93;85.48;101045.66;4973024;28;20054;-55
2022/01/03 08:56:32;;;;;;;24.50;7.13;;;;;;;8.93;85.47;101040.16;4973625;28;20061;-55
2022/01/03 08:58:57;;;;;;;22.40;7.65;;;;;;;8.97;84.93;101044.00;4973026;28;20027;-55
2022/01/03 09:01:23;;;;;;;24.08;7.20;;;;;;;9.00;85.50;101037.88;4970390;28;20034;-55
2022/01/03 09:03:51;;;;;;;23.33;7.53;;;;;;;9.01;84.96;101059.69;4971988;28;20478;-55
2022/01/03 09:06:17;;;;;;;24.90;7.85;;;;;;;9.04;85.04;101064.59;4971938;28;20533;-55
2022/01/03 09:08:44;;;;;;;24.35;7.25;;;;;;;9.10;84.78;101068.13;4971676;28;20027;-56
2022/01/03 09:11:09;;;;;;;22.10;7.65;;;;;;;9.16;85.07;101060.63;4972457;28;20073;-55
2022/01/03 09:13:35;;;;;;;21.13;6.93;;;;;;;9.27;84.99;101045.59;4972108;28;20074;-57
2022/01/03 09:16:04;;;;;;;19.92;6.65;;;;;;;9.34;84.55;101046.06;4972486;28;20455;-56
2022/01/03 09:18:31;;;;;;;25.00;7.25;;;;;;;9.39;83.67;101042.44;4972117;28;20114;-56
2022/01/03 09:20:56;;;;;;;23.35;7.20;;;;;;;9.34;83.67;101040.56;4972306;28;20059;-56
2022/01/03 09:23:27;;;;;;;23.75;6.88;;;;;;;9.34;83.62;101039.75;4971707;28;20473;-56
2022/01/03 09:28:48;;;;;;;21.67;6.35;;;;;;;9.36;83.40;101026.44;4982515;28;20125;-55
2022/01/03 09:31:14;;;;;;;24.67;7.05;;;;;;;9.35;83.41;101027.59;4991419;28;20498;-56
2022/01/03 09:33:39;;;;;;;25.23;6.93;;;;;;;9.38;83.00;101018.69;4991330;28;20070;-58
2022/01/03 09:36:05;;;;;;;26.42;8.20;;;;;;;9.43;83.00;101013.13;4991370;28;20027;-56
2022/01/03 09:38:30;;;;;;;23.38;7.93;;;;;;;9.46;82.97;101020.00;4991131;28;20026;-58
2022/01/03 09:41:02;;;;;;;23.83;6.97;;;;;;;9.43;82.91;101004.00;4991377;28;20122;-56
2022/01/03 09:43:28;;;;;;;26.13;8.02;;;;;;;9.48;82.69;101001.22;4990072;28;20505;-57
2022/01/03 09:45:54;;;;;;;21.90;7.15;;;;;;;9.57;82.10;101010.47;4991407;28;20042;-55
2022/01/03 09:48:21;;;;;;;21.85;7.80;;;;;;;9.60;81.51;100995.25;4990619;28;20030;-55
2022/01/03 09:50:48;;;;;;;22.30;7.60;;;;;;;9.61;81.89;101013.47;4990704;28;20027;-55
2022/01/03 09:53:18;;;;;;;23.50;7.40;;;;;;;9.65;81.76;101017.28;4990627;28;20050;-55
2022/01/03 09:55:44;;;;;;;24.95;7.45;;;;;;;9.71;81.05;101018.88;4990588;28;20038;-55
2022/01/03 09:58:10;;;;;;;23.83;8.07;;;;;;;9.82;81.34;101020.34;4989856;28;20030;-55
2022/01/03 10:00:36;;;;;;;21.90;7.45;;;;;;;9.89;81.10;101020.00;4992287;28;20393;-55
2022/01/03 10:03:01;;;;;;;21.42;7.15;;;;;;;10.01;80.31;101004.91;4995000;28;20030;-55
2022/01/03 10:05:27;;;;;;;25.02;8.02;;;;;;;10.01;79.97;101003.00;4995095;28;20030;-55
2022/01/03 10:07:52;;;;;;;24.67;8.32;;;;;;;10.03;80.28;101006.25;4994997;28;20037;-57
2022/01/03 10:10:17;;;;;;;22.60;8.57;;;;;;;10.06;80.16;101007.63;4995124;28;20027;-58
2022/01/03 10:12:43;;;;;;;26.30;8.23;;;;;;;10.06;80.37;101013.16;4994827;28;20477;-55
2022/01/03 10:15:09;;;;;;;27.75;8.15;;;;;;;10.11;80.24;100997.28;4994909;28;20034;-59
2022/01/03 10:17:36;;;;;;;22.40;7.28;;;;;;;10.14;79.84;100998.66;4994639;28;20036;-55
2022/01/03 10:20:06;;;;;;;26.42;8.63;;;;;;;10.12;80.22;100990.66;4994803;28;20104;-55
2022/01/03 10:22:33;;;;;;;28.00;8.02;;;;;;;10.10;79.73;100986.53;4994596;28;20026;-55
2022/01/03 10:25:23;;;;;;;24.23;8.02;;;;;;;10.20;80.09;100999.41;4994589;28;20034;-55
2022/01/03 10:27:50;;;;;;;25.65;8.00;;;;;;;10.20;79.46;101010.47;4994810;28;20105;-55
2022/01/03 10:30:48;;;;;;;25.02;8.80;;;;;;;10.19;80.67;101006.84;4994626;28;20464;-55
2022/01/03 10:33:16;;;;;;;27.23;8.77;;;;;;;10.17;78.76;101008.28;4961734;28;20050;-55
2022/01/03 10:35:44;;;;;;;27.23;8.48;;;;;;;10.14;79.00;101002.22;4994461;28;20402;-55
2022/01/03 10:38:10;;;;;;;27.77;8.57;;;;;;;10.13;79.51;100997.00;4994474;28;20736;-55
2022/01/03 10:40:37;;;;;;;21.58;7.78;;;;;;;10.12;79.31;101004.47;4994280;28;20038;-56
2022/01/03 10:43:19;;;;;;;25.10;8.35;;;;;;;10.08;79.52;101000.69;4994312;28;20031;-56
2022/01/03 10:45:47;;;;;;;25.73;8.35;;;;;;;10.01;79.67;100993.88;4993383;28;20153;-56
2022/01/03 10:48:33;;;;;;;25.55;7.97;;;;;;;9.97;79.83;100977.88;4994318;28;20050;-56
2022/01/03 10:51:00;;;;;;;23.13;8.38;;;;;;;10.03;79.66;100980.56;4994265;28;20050;-56
2022/01/03 10:53:43;;;;;;;25.02;8.70;;;;;;;10.05;79.59;100978.34;4992841;28;20097;-58
2022/01/03 10:56:28;;;;;;;26.73;9.10;;;;;;;10.01;79.37;100969.00;4994187;28;20039;-57
2022/01/03 10:58:58;;;;;;;23.75;8.90;;;;;;;9.95;79.50;100976.53;4994162;28;20568;-56
2022/01/03 11:01:30;;;;;;;26.45;8.82;;;;;;;9.95;79.73;100962.72;4992581;28;20401;-56
2022/01/03 11:03:59;;;;;;;25.85;9.05;;;;;;;9.93;79.65;100967.72;4994235;28;20516;-56
2022/01/03 11:11:46;;;;;;;23.98;8.23;;;;;;;9.96;79.30;100965.19;4992936;28;20406;-56
2022/01/03 11:14:39;;;;;;;21.00;8.02;;;;;;;9.96;79.72;100943.09;4993813;28;20046;-56
2022/01/03 11:17:27;;;;;;;25.70;8.80;;;;;;;10.08;79.36;100964.75;4993675;28;20030;-56
2022/01/03 11:19:54;;;;;;;27.67;8.95;;;;;;;10.03;78.92;100952.94;4993292;28;20026;-56
2022/01/03 11:22:44;;;;;;;23.60;8.75;;;;;;;9.98;78.85;100946.34;4993713;28;20098;-56
2022/01/03 11:25:11;;;;;;;23.65;8.48;;;;;;;9.99;79.64;100947.19;4993474;28;20413;-56
2022/01/03 11:27:40;;;;;;;24.50;8.80;;;;;;;10.00;79.25;100959.88;4993460;28;20049;-56
2022/01/03 11:30:11;;;;;;;25.00;8.52;;;;;;;9.97;79.09;100941.13;4993585;28;20035;-56
2022/01/03 11:32:42;;;;;;;23.33;8.30;;;;;;;9.94;78.75;100941.72;4991568;28;20478;-55
2022/01/03 11:35:08;;;;;;;23.17;8.50;;;;;;;9.96;79.37;100945.84;4993019;28;20062;-56
2022/01/03 11:37:36;;;;;;;23.10;8.50;;;;;;;9.97;79.63;100938.38;4992339;28;20470;-56
2022/01/03 11:40:04;;;;;;;22.25;8.13;;;;;;;10.05;78.97;100937.69;4992037;28;20049;-54